sensor_id;sensor_type;location;lat;lon;timestamp;P1;durP1;ratioP1;P2;durP2;ratioP2
15012;SDS011;7603;49.432;11.418;2023-10-09T00:02:09;16.88;;;14.20;;
15012;SDS011;7603;49.432;11.418;2023-10-09T00:04:39;16.42;;;14.00;;
15012;SDS011;7603;49.432;11.418;2023-10-09T00:07:07;16.77;;;15.15;;
15012;SDS011;7603;49.432;11.418;2023-10-09T00:09:37;20.13;;;17.63;;
15012;SDS011;7603;49.432;11.418;2023-10-09T00:12:15;26.70;;;18.77;;
15012;SDS011;7603;49.432;11.418;2023-10-09T00:14:51;21.40;;;16.73;;
15012;SDS011;7603;49.432;11.418;2023-10-09T00:17:20;21.30;;;17.38;;
15012;SDS011;7603;49.432;11.418;2023-10-09T00:19:47;28.95;;;19.50;;
15012;SDS011;7603;49.432;11.418;2023-10-09T00:22:16;20.08;;;17.08;;
15012;SDS011;7603;49.432;11.418;2023-10-09T00:24:54;17.40;;;15.55;;
15012;SDS011;7603;49.432;11.418;2023-10-09T00:27:35;20.80;;;16.02;;
15012;SDS011;7603;49.432;11.418;2023-10-09T00:30:11;18.55;;;16.48;;
15012;SDS011;7603;49.432;11.418;2023-10-09T00:32:40;20.75;;;16.75;;
15012;SDS011;7603;49.432;11.418;2023-10-09T00:35:07;25.15;;;19.95;;
15012;SDS011;7603;49.432;11.418;2023-10-09T00:37:51;26.00;;;23.20;;
15012;SDS011;7603;49.432;11.418;2023-10-09T00:40:21;21.75;;;18.75;;
15012;SDS011;7603;49.432;11.418;2023-10-09T00:42:52;23.52;;;20.15;;
15012;SDS011;7603;49.432;11.418;2023-10-09T00:45:20;23.73;;;18.15;;
15012;SDS011;7603;49.432;11.418;2023-10-09T00:47:51;22.33;;;17.48;;
15012;SDS011;7603;49.432;11.418;2023-10-09T00:50:21;17.48;;;15.32;;
15012;SDS011;7603;49.432;11.418;2023-10-09T00:52:49;25.98;;;21.17;;
15012;SDS011;7603;49.432;11.418;2023-10-09T00:55:19;15.63;;;12.75;;
15012;SDS011;7603;49.432;11.418;2023-10-09T00:57:47;13.32;;;12.05;;
15012;SDS011;7603;49.432;11.418;2023-10-09T01:00:25;14.45;;;12.60;;
15012;SDS011;7603;49.432;11.418;2023-10-09T01:03:01;14.30;;;11.52;;
15012;SDS011;7603;49.432;11.418;2023-10-09T01:05:42;12.95;;;10.60;;
15012;SDS011;7603;49.432;11.418;2023-10-09T01:08:17;18.20;;;11.93;;
15012;SDS011;7603;49.432;11.418;2023-10-09T01:10:57;13.20;;;9.52;;
15012;SDS011;7603;49.432;11.418;2023-10-09T01:13:44;32.08;;;19.88;;
15012;SDS011;7603;49.432;11.418;2023-10-09T01:16:11;13.38;;;9.60;;
15012;SDS011;7603;49.432;11.418;2023-10-09T01:18:41;12.57;;;9.57;;
15012;SDS011;7603;49.432;11.418;2023-10-09T01:21:14;14.10;;;9.07;;
15012;SDS011;7603;49.432;11.418;2023-10-09T01:23:45;9.75;;;8.95;;
15012;SDS011;7603;49.432;11.418;2023-10-09T01:26:26;11.18;;;8.70;;
15012;SDS011;7603;49.432;11.418;2023-10-09T01:28:57;18.63;;;12.45;;
15012;SDS011;7603;49.432;11.418;2023-10-09T01:31:25;12.32;;;8.90;;
15012;SDS011;7603;49.432;11.418;2023-10-09T01:33:51;10.13;;;9.13;;
15012;SDS011;7603;49.432;11.418;2023-10-09T01:36:19;12.35;;;8.25;;
15012;SDS011;7603;49.432;11.418;2023-10-09T01:38:57;12.25;;;8.88;;
15012;SDS011;7603;49.432;11.418;2023-10-09T01:41:56;13.15;;;8.20;;
15012;SDS011;7603;49.432;11.418;2023-10-09T01:44:26;9.45;;;8.32;;
15012;SDS011;7603;49.432;11.418;2023-10-09T01:46:55;10.70;;;7.80;;
15012;SDS011;7603;49.432;11.418;2023-10-09T01:49:22;8.85;;;8.00;;
15012;SDS011;7603;49.432;11.418;2023-10-09T01:51:57;11.82;;;7.50;;
15012;SDS011;7603;49.432;11.418;2023-10-09T01:54:36;8.38;;;7.55;;
15012;SDS011;7603;49.432;11.418;2023-10-09T01:57:05;11.95;;;8.38;;
15012;SDS011;7603;49.432;11.418;2023-10-09T01:59:41;9.93;;;8.32;;
15012;SDS011;7603;49.432;11.418;2023-10-09T02:02:15;12.90;;;8.40;;
15012;SDS011;7603;49.432;11.418;2023-10-09T02:04:51;9.52;;;8.20;;
15012;SDS011;7603;49.432;11.418;2023-10-09T02:07:34;18.98;;;8.32;;
15012;SDS011;7603;49.432;11.418;2023-10-09T02:10:08;12.35;;;7.43;;
15012;SDS011;7603;49.432;11.418;2023-10-09T02:12:47;8.57;;;7.15;;
15012;SDS011;7603;49.432;11.418;2023-10-09T02:15:18;9.45;;;7.68;;
15012;SDS011;7603;49.432;11.418;2023-10-09T02:18:04;13.02;;;7.82;;
15012;SDS011;7603;49.432;11.418;2023-10-09T02:20:41;11.65;;;8.10;;
15012;SDS011;7603;49.432;11.418;2023-10-09T02:23:12;12.27;;;9.02;;
15012;SDS011;7603;49.432;11.418;2023-10-09T02:25:38;17.60;;;8.60;;
15012;SDS011;7603;49.432;11.418;2023-10-09T02:28:09;13.05;;;8.02;;
15012;SDS011;7603;49.432;11.418;2023-10-09T02:30:43;15.85;;;8.40;;
15012;SDS011;7603;49.432;11.418;2023-10-09T02:33:15;8.98;;;7.30;;
15012;SDS011;7603;49.432;11.418;2023-10-09T02:35:46;8.05;;;7.03;;
15012;SDS011;7603;49.432;11.418;2023-10-09T02:38:16;8.43;;;7.60;;
15012;SDS011;7603;49.432;11.418;2023-10-09T02:40:42;10.68;;;7.07;;
15012;SDS011;7603;49.432;11.418;2023-10-09T02:43:30;10.75;;;7.82;;
15012;SDS011;7603;49.432;11.418;2023-10-09T02:46:23;10.50;;;8.18;;
15012;SDS011;7603;49.432;11.418;2023-10-09T02:48:56;8.10;;;7.25;;
15012;SDS011;7603;49.432;11.418;2023-10-09T02:51:28;10.98;;;9.88;;
15012;SDS011;7603;49.432;11.418;2023-10-09T02:54:01;10.38;;;8.80;;
15012;SDS011;7603;49.432;11.418;2023-10-09T02:56:43;11.13;;;9.43;;
15012;SDS011;7603;49.432;11.418;2023-10-09T02:59:12;10.77;;;8.55;;
15012;SDS011;7603;49.432;11.418;2023-10-09T03:01:40;12.20;;;8.45;;
15012;SDS011;7603;49.432;11.418;2023-10-09T03:04:06;12.73;;;8.25;;
15012;SDS011;7603;49.432;11.418;2023-10-09T03:06:35;15.95;;;8.77;;
15012;SDS011;7603;49.432;11.418;2023-10-09T03:09:08;16.08;;;10.15;;
15012;SDS011;7603;49.432;11.418;2023-10-09T03:11:43;13.15;;;9.68;;
15012;SDS011;7603;49.432;11.418;2023-10-09T03:14:18;13.07;;;10.43;;
15012;SDS011;7603;49.432;11.418;2023-10-09T03:16:45;19.85;;;10.75;;
15012;SDS011;7603;49.432;11.418;2023-10-09T03:19:14;18.73;;;10.77;;
15012;SDS011;7603;49.432;11.418;2023-10-09T03:21:39;24.35;;;18.58;;
15012;SDS011;7603;49.432;11.418;2023-10-09T03:24:05;15.63;;;12.07;;
15012;SDS011;7603;49.432;11.418;2023-10-09T03:26:33;21.10;;;18.98;;
15012;SDS011;7603;49.432;11.418;2023-10-09T03:28:58;15.90;;;9.38;;
15012;SDS011;7603;49.432;11.418;2023-10-09T03:31:26;16.40;;;13.02;;
15012;SDS011;7603;49.432;11.418;2023-10-09T03:33:55;19.42;;;15.50;;
15012;SDS011;7603;49.432;11.418;2023-10-09T03:36:21;16.42;;;11.05;;
15012;SDS011;7603;49.432;11.418;2023-10-09T03:38:47;12.98;;;10.15;;
15012;SDS011;7603;49.432;11.418;2023-10-09T03:41:13;11.93;;;9.60;;
15012;SDS011;7603;49.432;11.418;2023-10-09T03:43:39;14.88;;;9.95;;
15012;SDS011;7603;49.432;11.418;2023-10-09T03:46:11;12.90;;;9.25;;
15012;SDS011;7603;49.432;11.418;2023-10-09T03:48:59;11.45;;;10.27;;
15012;SDS011;7603;49.432;11.418;2023-10-09T03:51:29;13.57;;;10.43;;
15012;SDS011;7603;49.432;11.418;2023-10-09T03:53:54;17.00;;;11.02;;
15012;SDS011;7603;49.432;11.418;2023-10-09T03:56:20;9.73;;;8.82;;
15012;SDS011;7603;49.432;11.418;2023-10-09T03:58:47;12.90;;;8.10;;
15012;SDS011;7603;49.432;11.418;2023-10-09T04:01:18;14.90;;;13.23;;
15012;SDS011;7603;49.432;11.418;2023-10-09T04:03:52;12.23;;;9.38;;
15012;SDS011;7603;49.432;11.418;2023-10-09T04:06:24;12.68;;;8.38;;
15012;SDS011;7603;49.432;11.418;2023-10-09T04:09:00;15.02;;;9.88;;
15012;SDS011;7603;49.432;11.418;2023-10-09T04:11:51;23.13;;;16.15;;
15012;SDS011;7603;49.432;11.418;2023-10-09T04:14:38;15.60;;;9.32;;
15012;SDS011;7603;49.432;11.418;2023-10-09T04:17:14;12.98;;;10.65;;
15012;SDS011;7603;49.432;11.418;2023-10-09T04:19:58;10.80;;;8.65;;
15012;SDS011;7603;49.432;11.418;2023-10-09T04:22:42;11.18;;;10.07;;
15012;SDS011;7603;49.432;11.418;2023-10-09T04:25:20;12.93;;;10.63;;
15012;SDS011;7603;49.432;11.418;2023-10-09T04:27:54;12.43;;;11.15;;
15012;SDS011;7603;49.432;11.418;2023-10-09T04:30:39;16.40;;;9.88;;
15012;SDS011;7603;49.432;11.418;2023-10-09T04:33:08;25.30;;;15.23;;
15012;SDS011;7603;49.432;11.418;2023-10-09T04:35:54;13.98;;;11.23;;
15012;SDS011;7603;49.432;11.418;2023-10-09T04:38:45;16.35;;;11.30;;
15012;SDS011;7603;49.432;11.418;2023-10-09T04:41:23;15.68;;;9.85;;
15012;SDS011;7603;49.432;11.418;2023-10-09T04:44:07;18.90;;;10.43;;
15012;SDS011;7603;49.432;11.418;2023-10-09T04:46:42;17.80;;;11.77;;
15012;SDS011;7603;49.432;11.418;2023-10-09T04:49:09;25.15;;;17.92;;
15012;SDS011;7603;49.432;11.418;2023-10-09T04:51:55;14.73;;;11.15;;
15012;SDS011;7603;49.432;11.418;2023-10-09T04:54:31;16.27;;;10.88;;
15012;SDS011;7603;49.432;11.418;2023-10-09T04:57:26;15.95;;;11.35;;
15012;SDS011;7603;49.432;11.418;2023-10-09T04:59:51;18.42;;;11.00;;
15012;SDS011;7603;49.432;11.418;2023-10-09T05:02:19;22.52;;;11.60;;
15012;SDS011;7603;49.432;11.418;2023-10-09T05:04:45;17.75;;;13.20;;
15012;SDS011;7603;49.432;11.418;2023-10-09T05:07:16;22.60;;;15.02;;
15012;SDS011;7603;49.432;11.418;2023-10-09T05:10:10;23.30;;;17.95;;
15012;SDS011;7603;49.432;11.418;2023-10-09T05:12:49;22.55;;;13.57;;
15012;SDS011;7603;49.432;11.418;2023-10-09T05:15:22;14.45;;;12.65;;
15012;SDS011;7603;49.432;11.418;2023-10-09T05:17:53;22.35;;;14.38;;
15012;SDS011;7603;49.432;11.418;2023-10-09T05:20:21;18.77;;;13.27;;
15012;SDS011;7603;49.432;11.418;2023-10-09T05:22:50;19.50;;;13.18;;
15012;SDS011;7603;49.432;11.418;2023-10-09T05:25:23;17.05;;;12.32;;
15012;SDS011;7603;49.432;11.418;2023-10-09T05:28:15;32.78;;;13.65;;
15012;SDS011;7603;49.432;11.418;2023-10-09T05:30:56;22.00;;;12.82;;
15012;SDS011;7603;49.432;11.418;2023-10-09T05:33:31;23.35;;;14.32;;
15012;SDS011;7603;49.432;11.418;2023-10-09T05:35:59;19.85;;;14.93;;
15012;SDS011;7603;49.432;11.418;2023-10-09T05:38:56;27.48;;;14.48;;
15012;SDS011;7603;49.432;11.418;2023-10-09T05:41:42;18.65;;;13.85;;
15012;SDS011;7603;49.432;11.418;2023-10-09T05:44:16;20.60;;;14.02;;
15012;SDS011;7603;49.432;11.418;2023-10-09T05:47:00;19.42;;;12.32;;
15012;SDS011;7603;49.432;11.418;2023-10-09T05:52:34;25.35;;;13.30;;
15012;SDS011;7603;49.432;11.418;2023-10-09T05:55:03;20.95;;;13.65;;
15012;SDS011;7603;49.432;11.418;2023-10-09T05:57:35;18.02;;;11.98;;
15012;SDS011;7603;49.432;11.418;2023-10-09T06:00:19;24.50;;;14.00;;
15012;SDS011;7603;49.432;11.418;2023-10-09T06:03:03;17.77;;;11.40;;
15012;SDS011;7603;49.432;11.418;2023-10-09T06:06:02;35.90;;;18.77;;
15012;SDS011;7603;49.432;11.418;2023-10-09T06:08:29;25.65;;;12.98;;
15012;SDS011;7603;49.432;11.418;2023-10-09T06:11:08;35.63;;;21.48;;
15012;SDS011;7603;49.432;11.418;2023-10-09T06:13:57;16.52;;;11.43;;
15012;SDS011;7603;49.432;11.418;2023-10-09T06:16:33;18.55;;;10.82;;
15012;SDS011;7603;49.432;11.418;2023-10-09T06:19:02;18.25;;;10.90;;
15012;SDS011;7603;49.432;11.418;2023-10-09T06:21:46;24.38;;;10.40;;
15012;SDS011;7603;49.432;11.418;2023-10-09T06:24:24;13.07;;;9.35;;
15012;SDS011;7603;49.432;11.418;2023-10-09T06:26:51;18.23;;;10.00;;
15012;SDS011;7603;49.432;11.418;2023-10-09T06:29:26;15.60;;;10.40;;
15012;SDS011;7603;49.432;11.418;2023-10-09T06:32:18;19.05;;;10.43;;
15012;SDS011;7603;49.432;11.418;2023-10-09T06:34:47;10.60;;;9.50;;
15012;SDS011;7603;49.432;11.418;2023-10-09T06:37:21;11.07;;;7.53;;
15012;SDS011;7603;49.432;11.418;2023-10-09T06:39:49;10.60;;;8.30;;
15012;SDS011;7603;49.432;11.418;2023-10-09T06:42:39;14.07;;;8.07;;
15012;SDS011;7603;49.432;11.418;2023-10-09T06:45:08;18.80;;;8.73;;
15012;SDS011;7603;49.432;11.418;2023-10-09T06:47:46;15.10;;;7.10;;
15012;SDS011;7603;49.432;11.418;2023-10-09T06:50:21;11.02;;;7.30;;
15012;SDS011;7603;49.432;11.418;2023-10-09T06:52:48;10.65;;;6.93;;
15012;SDS011;7603;49.432;11.418;2023-10-09T06:55:23;10.70;;;5.93;;
15012;SDS011;7603;49.432;11.418;2023-10-09T06:58:13;20.75;;;7.50;;
15012;SDS011;7603;49.432;11.418;2023-10-09T07:00:48;9.75;;;6.20;;
15012;SDS011;7603;49.432;11.418;2023-10-09T07:03:19;12.85;;;6.15;;
15012;SDS011;7603;49.432;11.418;2023-10-09T07:06:02;15.93;;;6.43;;
15012;SDS011;7603;49.432;11.418;2023-10-09T07:08:38;11.90;;;6.18;;
15012;SDS011;7603;49.432;11.418;2023-10-09T07:11:09;13.65;;;8.50;;
15012;SDS011;7603;49.432;11.418;2023-10-09T07:19:40;11.98;;;6.30;;
15012;SDS011;7603;49.432;11.418;2023-10-09T07:22:10;9.77;;;5.60;;
15012;SDS011;7603;49.432;11.418;2023-10-09T07:24:45;15.15;;;5.90;;
15012;SDS011;7603;49.432;11.418;2023-10-09T07:27:23;13.13;;;5.70;;
15012;SDS011;7603;49.432;11.418;2023-10-09T07:30:08;8.55;;;5.45;;
15012;SDS011;7603;49.432;11.418;2023-10-09T07:33:00;13.38;;;5.80;;
15012;SDS011;7603;49.432;11.418;2023-10-09T07:35:36;9.20;;;5.38;;
15012;SDS011;7603;49.432;11.418;2023-10-09T07:38:16;11.70;;;5.68;;
15012;SDS011;7603;49.432;11.418;2023-10-09T07:40:46;8.95;;;6.13;;
15012;SDS011;7603;49.432;11.418;2023-10-09T07:43:45;9.82;;;5.63;;
15012;SDS011;7603;49.432;11.418;2023-10-09T07:46:14;15.20;;;5.82;;
15012;SDS011;7603;49.432;11.418;2023-10-09T07:49:17;10.77;;;5.60;;
15012;SDS011;7603;49.432;11.418;2023-10-09T07:51:49;20.60;;;5.57;;
15012;SDS011;7603;49.432;11.418;2023-10-09T07:54:17;11.60;;;6.10;;
15012;SDS011;7603;49.432;11.418;2023-10-09T07:56:57;16.77;;;5.10;;
15012;SDS011;7603;49.432;11.418;2023-10-09T07:59:33;10.48;;;5.47;;
15012;SDS011;7603;49.432;11.418;2023-10-09T08:02:06;19.95;;;15.18;;
15012;SDS011;7603;49.432;11.418;2023-10-09T08:04:38;10.88;;;5.20;;
15012;SDS011;7603;49.432;11.418;2023-10-09T08:07:14;11.45;;;5.43;;
15012;SDS011;7603;49.432;11.418;2023-10-09T08:09:59;18.95;;;5.18;;
15012;SDS011;7603;49.432;11.418;2023-10-09T08:12:44;15.77;;;5.65;;
15012;SDS011;7603;49.432;11.418;2023-10-09T08:15:23;12.65;;;5.38;;
15012;SDS011;7603;49.432;11.418;2023-10-09T08:18:08;11.68;;;5.13;;
15012;SDS011;7603;49.432;11.418;2023-10-09T08:20:43;10.15;;;4.63;;
15012;SDS011;7603;49.432;11.418;2023-10-09T08:23:27;10.32;;;5.13;;
15012;SDS011;7603;49.432;11.418;2023-10-09T08:26:13;10.93;;;4.70;;
15012;SDS011;7603;49.432;11.418;2023-10-09T08:28:42;15.38;;;5.75;;
15012;SDS011;7603;49.432;11.418;2023-10-09T08:31:11;15.95;;;10.13;;
15012;SDS011;7603;49.432;11.418;2023-10-09T08:33:45;14.55;;;5.90;;
15012;SDS011;7603;49.432;11.418;2023-10-09T08:36:21;9.77;;;5.10;;
15012;SDS011;7603;49.432;11.418;2023-10-09T08:38:48;13.02;;;5.55;;
15012;SDS011;7603;49.432;11.418;2023-10-09T08:41:13;10.20;;;4.65;;
15012;SDS011;7603;49.432;11.418;2023-10-09T08:43:52;9.25;;;5.25;;
15012;SDS011;7603;49.432;11.418;2023-10-09T08:46:19;11.23;;;5.57;;
15012;SDS011;7603;49.432;11.418;2023-10-09T08:48:51;10.73;;;5.55;;
15012;SDS011;7603;49.432;11.418;2023-10-09T08:51:19;13.45;;;5.53;;
15012;SDS011;7603;49.432;11.418;2023-10-09T08:53:45;11.55;;;5.35;;
15012;SDS011;7603;49.432;11.418;2023-10-09T08:56:12;10.20;;;5.05;;
15012;SDS011;7603;49.432;11.418;2023-10-09T08:58:47;9.95;;;6.25;;
15012;SDS011;7603;49.432;11.418;2023-10-09T09:01:22;10.50;;;5.22;;
15012;SDS011;7603;49.432;11.418;2023-10-09T09:03:50;9.80;;;5.18;;
15012;SDS011;7603;49.432;11.418;2023-10-09T09:06:19;13.05;;;5.15;;
15012;SDS011;7603;49.432;11.418;2023-10-09T09:08:45;11.52;;;5.40;;
15012;SDS011;7603;49.432;11.418;2023-10-09T09:11:13;6.20;;;4.65;;
15012;SDS011;7603;49.432;11.418;2023-10-09T09:13:41;9.57;;;5.40;;
15012;SDS011;7603;49.432;11.418;2023-10-09T09:16:18;12.10;;;5.15;;
15012;SDS011;7603;49.432;11.418;2023-10-09T09:19:04;13.20;;;6.22;;
15012;SDS011;7603;49.432;11.418;2023-10-09T09:21:33;14.10;;;4.85;;
15012;SDS011;7603;49.432;11.418;2023-10-09T09:24:06;9.15;;;5.38;;
15012;SDS011;7603;49.432;11.418;2023-10-09T09:26:49;7.78;;;4.68;;
15012;SDS011;7603;49.432;11.418;2023-10-09T09:29:45;9.85;;;4.20;;
15012;SDS011;7603;49.432;11.418;2023-10-09T09:32:19;7.32;;;5.57;;
15012;SDS011;7603;49.432;11.418;2023-10-09T09:35:05;13.15;;;5.00;;
15012;SDS011;7603;49.432;11.418;2023-10-09T09:37:44;8.75;;;6.38;;
15012;SDS011;7603;49.432;11.418;2023-10-09T09:40:18;8.48;;;4.85;;
15012;SDS011;7603;49.432;11.418;2023-10-09T09:42:58;5.82;;;4.85;;
15012;SDS011;7603;49.432;11.418;2023-10-09T09:45:30;6.60;;;4.45;;
15012;SDS011;7603;49.432;11.418;2023-10-09T09:48:02;9.13;;;4.93;;
15012;SDS011;7603;49.432;11.418;2023-10-09T09:50:34;12.05;;;4.63;;
15012;SDS011;7603;49.432;11.418;2023-10-09T09:53:08;9.02;;;4.50;;
15012;SDS011;7603;49.432;11.418;2023-10-09T09:55:41;9.40;;;4.60;;
15012;SDS011;7603;49.432;11.418;2023-10-09T09:58:17;7.88;;;5.45;;
15012;SDS011;7603;49.432;11.418;2023-10-09T10:00:52;9.13;;;4.95;;
15012;SDS011;7603;49.432;11.418;2023-10-09T10:03:26;14.38;;;5.28;;
15012;SDS011;7603;49.432;11.418;2023-10-09T10:05:54;10.18;;;4.80;;
15012;SDS011;7603;49.432;11.418;2023-10-09T10:08:22;8.32;;;5.05;;
15012;SDS011;7603;49.432;11.418;2023-10-09T10:10:56;8.32;;;5.70;;
15012;SDS011;7603;49.432;11.418;2023-10-09T10:16:06;9.95;;;6.10;;
15012;SDS011;7603;49.432;11.418;2023-10-09T10:18:57;9.88;;;5.43;;
15012;SDS011;7603;49.432;11.418;2023-10-09T10:21:46;13.65;;;4.72;;
15012;SDS011;7603;49.432;11.418;2023-10-09T10:32:59;14.75;;;5.28;;
15012;SDS011;7603;49.432;11.418;2023-10-09T10:35:34;11.32;;;5.45;;
15012;SDS011;7603;49.432;11.418;2023-10-09T10:38:29;12.95;;;5.43;;
15012;SDS011;7603;49.432;11.418;2023-10-09T10:41:13;10.88;;;6.93;;
15012;SDS011;7603;49.432;11.418;2023-10-09T10:43:45;14.05;;;6.47;;
15012;SDS011;7603;49.432;11.418;2023-10-09T10:46:17;13.27;;;5.82;;
15012;SDS011;7603;49.432;11.418;2023-10-09T10:48:55;8.75;;;5.05;;
15012;SDS011;7603;49.432;11.418;2023-10-09T10:51:42;8.20;;;4.30;;
15012;SDS011;7603;49.432;11.418;2023-10-09T10:54:20;8.38;;;5.68;;
15012;SDS011;7603;49.432;11.418;2023-10-09T10:56:59;19.65;;;6.13;;
15012;SDS011;7603;49.432;11.418;2023-10-09T10:59:31;13.85;;;6.68;;
15012;SDS011;7603;49.432;11.418;2023-10-09T11:02:09;14.13;;;5.90;;
15012;SDS011;7603;49.432;11.418;2023-10-09T11:04:35;8.43;;;5.60;;
15012;SDS011;7603;49.432;11.418;2023-10-09T11:07:01;13.75;;;6.80;;
15012;SDS011;7603;49.432;11.418;2023-10-09T11:12:31;17.15;;;5.95;;
15012;SDS011;7603;49.432;11.418;2023-10-09T11:15:31;12.15;;;6.65;;
15012;SDS011;7603;49.432;11.418;2023-10-09T11:18:09;11.10;;;5.20;;
15012;SDS011;7603;49.432;11.418;2023-10-09T11:20:48;10.93;;;5.03;;
15012;SDS011;7603;49.432;11.418;2023-10-09T11:23:30;15.85;;;5.63;;
15012;SDS011;7603;49.432;11.418;2023-10-09T11:25:59;10.60;;;4.65;;
15012;SDS011;7603;49.432;11.418;2023-10-09T11:31:38;10.98;;;5.22;;
15012;SDS011;7603;49.432;11.418;2023-10-09T11:34:08;19.45;;;10.23;;
15012;SDS011;7603;49.432;11.418;2023-10-09T11:36:53;13.35;;;9.43;;
15012;SDS011;7603;49.432;11.418;2023-10-09T11:39:24;12.75;;;6.20;;
15012;SDS011;7603;49.432;11.418;2023-10-09T11:42:07;10.48;;;4.97;;
15012;SDS011;7603;49.432;11.418;2023-10-09T11:44:40;13.73;;;5.32;;
15012;SDS011;7603;49.432;11.418;2023-10-09T11:47:10;11.30;;;5.00;;
15012;SDS011;7603;49.432;11.418;2023-10-09T11:49:56;13.38;;;5.70;;
15012;SDS011;7603;49.432;11.418;2023-10-09T11:52:26;11.52;;;5.00;;
15012;SDS011;7603;49.432;11.418;2023-10-09T11:55:03;13.10;;;5.38;;
15012;SDS011;7603;49.432;11.418;2023-10-09T11:57:31;17.50;;;8.32;;
15012;SDS011;7603;49.432;11.418;2023-10-09T11:59:59;12.05;;;4.53;;
15012;SDS011;7603;49.432;11.418;2023-10-09T12:02:25;12.88;;;5.40;;
15012;SDS011;7603;49.432;11.418;2023-10-09T12:04:51;8.07;;;4.97;;
15012;SDS011;7603;49.432;11.418;2023-10-09T12:07:19;10.05;;;3.80;;
15012;SDS011;7603;49.432;11.418;2023-10-09T12:09:45;14.05;;;5.45;;
15012;SDS011;7603;49.432;11.418;2023-10-09T12:12:13;10.35;;;5.15;;
15012;SDS011;7603;49.432;11.418;2023-10-09T12:14:38;13.63;;;4.68;;
15012;SDS011;7603;49.432;11.418;2023-10-09T12:17:04;12.82;;;4.93;;
15012;SDS011;7603;49.432;11.418;2023-10-09T12:19:35;16.90;;;5.47;;
15012;SDS011;7603;49.432;11.418;2023-10-09T12:22:05;8.30;;;4.30;;
15012;SDS011;7603;49.432;11.418;2023-10-09T12:24:36;8.30;;;4.53;;
15012;SDS011;7603;49.432;11.418;2023-10-09T12:27:02;11.25;;;5.07;;
15012;SDS011;7603;49.432;11.418;2023-10-09T12:29:34;9.07;;;4.97;;
15012;SDS011;7603;49.432;11.418;2023-10-09T12:32:00;14.35;;;4.95;;
15012;SDS011;7603;49.432;11.418;2023-10-09T12:34:27;12.80;;;5.47;;
15012;SDS011;7603;49.432;11.418;2023-10-09T12:36:55;13.60;;;6.80;;
15012;SDS011;7603;49.432;11.418;2023-10-09T12:39:26;9.48;;;5.60;;
15012;SDS011;7603;49.432;11.418;2023-10-09T12:41:58;16.17;;;5.90;;
15012;SDS011;7603;49.432;11.418;2023-10-09T12:44:31;19.02;;;5.30;;
15012;SDS011;7603;49.432;11.418;2023-10-09T12:47:03;12.25;;;4.82;;
15012;SDS011;7603;49.432;11.418;2023-10-09T12:49:32;9.18;;;4.47;;
15012;SDS011;7603;49.432;11.418;2023-10-09T12:51:58;14.02;;;4.70;;
15012;SDS011;7603;49.432;11.418;2023-10-09T12:54:27;10.20;;;4.72;;
15012;SDS011;7603;49.432;11.418;2023-10-09T12:56:53;21.27;;;5.55;;
15012;SDS011;7603;49.432;11.418;2023-10-09T12:59:19;13.27;;;5.47;;
15012;SDS011;7603;49.432;11.418;2023-10-09T13:01:46;15.45;;;6.00;;
15012;SDS011;7603;49.432;11.418;2023-10-09T13:04:17;16.08;;;7.88;;
15012;SDS011;7603;49.432;11.418;2023-10-09T13:06:47;14.50;;;5.45;;
15012;SDS011;7603;49.432;11.418;2023-10-09T13:09:15;10.25;;;5.25;;
15012;SDS011;7603;49.432;11.418;2023-10-09T13:11:59;14.07;;;4.93;;
15012;SDS011;7603;49.432;11.418;2023-10-09T13:14:26;11.10;;;5.18;;
15012;SDS011;7603;49.432;11.418;2023-10-09T13:16:52;7.50;;;5.07;;
15012;SDS011;7603;49.432;11.418;2023-10-09T13:19:18;10.68;;;5.50;;
15012;SDS011;7603;49.432;11.418;2023-10-09T13:21:44;18.25;;;6.85;;
15012;SDS011;7603;49.432;11.418;2023-10-09T13:24:09;10.48;;;7.32;;
15012;SDS011;7603;49.432;11.418;2023-10-09T13:26:40;19.95;;;6.20;;
15012;SDS011;7603;49.432;11.418;2023-10-09T13:29:11;13.25;;;6.07;;
15012;SDS011;7603;49.432;11.418;2023-10-09T13:31:38;13.85;;;5.15;;
15012;SDS011;7603;49.432;11.418;2023-10-09T13:34:12;14.60;;;5.57;;
15012;SDS011;7603;49.432;11.418;2023-10-09T13:36:40;8.48;;;4.57;;
15012;SDS011;7603;49.432;11.418;2023-10-09T13:39:14;11.07;;;4.45;;
15012;SDS011;7603;49.432;11.418;2023-10-09T13:41:55;13.25;;;5.95;;
15012;SDS011;7603;49.432;11.418;2023-10-09T13:44:32;20.00;;;7.13;;
15012;SDS011;7603;49.432;11.418;2023-10-09T13:46:59;10.15;;;4.70;;
15012;SDS011;7603;49.432;11.418;2023-10-09T13:49:27;13.40;;;7.70;;
15012;SDS011;7603;49.432;11.418;2023-10-09T13:51:56;11.25;;;6.10;;
15012;SDS011;7603;49.432;11.418;2023-10-09T13:54:23;13.57;;;5.18;;
15012;SDS011;7603;49.432;11.418;2023-10-09T13:57:09;13.60;;;6.03;;
15012;SDS011;7603;49.432;11.418;2023-10-09T13:59:35;10.70;;;4.55;;
15012;SDS011;7603;49.432;11.418;2023-10-09T14:02:07;16.20;;;5.30;;
15012;SDS011;7603;49.432;11.418;2023-10-09T14:04:41;14.82;;;4.85;;
15012;SDS011;7603;49.432;11.418;2023-10-09T14:07:08;17.67;;;5.18;;
15012;SDS011;7603;49.432;11.418;2023-10-09T14:09:34;21.35;;;5.20;;
15012;SDS011;7603;49.432;11.418;2023-10-09T14:12:03;15.88;;;7.85;;
15012;SDS011;7603;49.432;11.418;2023-10-09T14:14:40;24.10;;;10.80;;
15012;SDS011;7603;49.432;11.418;2023-10-09T14:17:13;14.20;;;5.78;;
15012;SDS011;7603;49.432;11.418;2023-10-09T14:19:42;10.30;;;5.00;;
15012;SDS011;7603;49.432;11.418;2023-10-09T14:22:15;10.98;;;4.90;;
15012;SDS011;7603;49.432;11.418;2023-10-09T14:24:44;9.63;;;5.18;;
15012;SDS011;7603;49.432;11.418;2023-10-09T14:27:14;11.40;;;5.07;;
15012;SDS011;7603;49.432;11.418;2023-10-09T14:29:44;8.63;;;4.18;;
15012;SDS011;7603;49.432;11.418;2023-10-09T14:32:10;12.57;;;4.72;;
15012;SDS011;7603;49.432;11.418;2023-10-09T14:34:39;15.43;;;4.53;;
15012;SDS011;7603;49.432;11.418;2023-10-09T14:37:14;11.82;;;5.35;;
15012;SDS011;7603;49.432;11.418;2023-10-09T14:39:41;14.57;;;5.53;;
15012;SDS011;7603;49.432;11.418;2023-10-09T14:42:07;8.73;;;5.32;;
15012;SDS011;7603;49.432;11.418;2023-10-09T14:44:36;11.82;;;4.65;;
15012;SDS011;7603;49.432;11.418;2023-10-09T14:47:05;10.90;;;5.35;;
15012;SDS011;7603;49.432;11.418;2023-10-09T14:49:31;17.08;;;4.35;;
15012;SDS011;7603;49.432;11.418;2023-10-09T14:52:04;13.02;;;5.05;;
15012;SDS011;7603;49.432;11.418;2023-10-09T14:54:33;15.82;;;5.22;;
15012;SDS011;7603;49.432;11.418;2023-10-09T14:56:59;10.50;;;4.57;;
15012;SDS011;7603;49.432;11.418;2023-10-09T14:59:25;53.30;;;8.55;;
15012;SDS011;7603;49.432;11.418;2023-10-09T15:01:50;19.88;;;6.10;;
15012;SDS011;7603;49.432;11.418;2023-10-09T15:04:18;20.77;;;4.75;;
15012;SDS011;7603;49.432;11.418;2023-10-09T15:06:45;11.60;;;4.50;;
15012;SDS011;7603;49.432;11.418;2023-10-09T15:09:14;14.20;;;8.27;;
15012;SDS011;7603;49.432;11.418;2023-10-09T15:11:54;29.85;;;12.52;;
15012;SDS011;7603;49.432;11.418;2023-10-09T15:14:20;21.52;;;8.52;;
15012;SDS011;7603;49.432;11.418;2023-10-09T15:16:46;10.27;;;6.10;;
15012;SDS011;7603;49.432;11.418;2023-10-09T15:19:13;15.40;;;5.63;;
15012;SDS011;7603;49.432;11.418;2023-10-09T15:21:41;10.50;;;5.88;;
15012;SDS011;7603;49.432;11.418;2023-10-09T15:24:10;12.85;;;5.63;;
15012;SDS011;7603;49.432;11.418;2023-10-09T15:26:47;11.55;;;5.55;;
15012;SDS011;7603;49.432;11.418;2023-10-09T15:29:18;11.55;;;5.35;;
15012;SDS011;7603;49.432;11.418;2023-10-09T15:31:48;10.35;;;4.97;;
15012;SDS011;7603;49.432;11.418;2023-10-09T15:34:15;19.17;;;8.70;;
15012;SDS011;7603;49.432;11.418;2023-10-09T15:36:43;7.00;;;4.85;;
15012;SDS011;7603;49.432;11.418;2023-10-09T15:39:11;14.07;;;4.90;;